createdAt,value
2023-04-30T00:03:05.862Z,981.74
2023-04-30T00:08:41.167Z,981.6
2023-04-30T00:14:12.685Z,981.78
2023-04-30T00:19:44.638Z,981.77
2023-04-30T00:25:16.161Z,981.64
2023-04-30T00:30:47.972Z,981.72
2023-04-30T00:36:19.501Z,981.69
2023-04-30T00:41:51.424Z,981.66
2023-04-30T00:47:23.103Z,981.61
2023-04-30T00:52:54.823Z,981.74
2023-04-30T00:58:26.784Z,981.81
2023-04-30T01:04:04.012Z,981.76
2023-04-30T01:09:34.662Z,981.81
2023-04-30T01:15:06.114Z,981.83
2023-04-30T01:20:38.245Z,981.87
2023-04-30T01:26:09.701Z,981.78
2023-04-30T01:31:41.464Z,981.7
2023-04-30T01:37:13.445Z,981.56
2023-04-30T01:42:44.856Z,981.57
2023-04-30T01:48:16.626Z,981.45
2023-04-30T01:53:48.163Z,981.43
2023-04-30T01:59:20.148Z,981.56
2023-04-30T02:04:51.855Z,981.69
2023-04-30T02:10:27.869Z,981.65
2023-04-30T02:15:59.759Z,981.3
2023-04-30T02:21:31.207Z,981.31
2023-04-30T02:27:03.264Z,981.38
2023-04-30T02:32:35.291Z,981.33
2023-04-30T02:38:06.516Z,980.99
2023-04-30T02:43:38.489Z,980.89
2023-04-30T02:49:09.889Z,981.07
2023-04-30T02:54:41.893Z,980.5
2023-04-30T03:00:13.812Z,981.16
2023-04-30T03:05:45.032Z,980.73
2023-04-30T03:11:23.522Z,981.25
2023-04-30T03:16:55.847Z,981.02
2023-04-30T03:22:26.894Z,981.08
2023-04-30T03:27:58.517Z,981.27
2023-04-30T03:33:30.687Z,981.2
2023-04-30T03:39:01.789Z,980.96
2023-04-30T03:44:33.450Z,981.01
2023-04-30T03:50:05.248Z,981.16
2023-04-30T03:55:37.140Z,981.16
2023-04-30T04:01:08.913Z,981.02
2023-04-30T04:06:40.977Z,980.91
2023-04-30T04:12:16.497Z,981.49
2023-04-30T04:17:48.360Z,981.66
2023-04-30T04:23:20.175Z,981.82
2023-04-30T04:28:51.827Z,981.77
2023-04-30T04:34:23.341Z,981.87
2023-04-30T04:39:56.621Z,981.8
2023-04-30T04:45:26.832Z,981.85
2023-04-30T04:50:58.955Z,981.83
2023-04-30T04:56:30.326Z,981.37
2023-04-30T05:02:03.109Z,981.65
2023-04-30T05:07:33.824Z,981.94
2023-04-30T05:13:09.891Z,981.57
2023-04-30T05:18:41.435Z,981.74
2023-04-30T05:24:13.721Z,982.06
2023-04-30T05:29:45.319Z,981.98
2023-04-30T05:35:16.788Z,981.78
2023-04-30T05:40:48.735Z,982.14
2023-04-30T05:46:20.402Z,982.14
2023-04-30T05:51:52.325Z,981.99
2023-04-30T05:57:23.725Z,982.03
2023-04-30T06:02:55.852Z,982.15
2023-04-30T06:08:27.293Z,982.63
2023-04-30T06:14:04.462Z,982.6
2023-04-30T06:19:34.914Z,982.63
2023-04-30T06:25:06.932Z,982.74
2023-04-30T06:30:38.298Z,982.74
2023-04-30T06:36:10.387Z,983.17
2023-04-30T06:41:41.798Z,983.35
2023-04-30T06:47:13.888Z,983.39
2023-04-30T06:52:45.656Z,983.63
2023-04-30T06:58:17.230Z,983.27
2023-04-30T07:03:49.515Z,983.35
2023-04-30T07:09:20.604Z,983.76
2023-04-30T07:14:57.531Z,984.09
2023-04-30T07:20:28.748Z,984.24
2023-04-30T07:26:00.173Z,984.42
2023-04-30T07:31:32.186Z,984.5
2023-04-30T07:37:03.693Z,984.23
2023-04-30T07:42:35.588Z,984.0
2023-04-30T07:48:07.289Z,985.1
2023-04-30T07:53:38.777Z,985.21
2023-04-30T07:59:10.641Z,984.91
2023-04-30T08:04:42.297Z,985.24
2023-04-30T08:10:14.357Z,984.53
2023-04-30T08:15:52.275Z,984.05
2023-04-30T08:21:23.822Z,984.76
2023-04-30T08:26:55.809Z,985.04
2023-04-30T08:32:28.185Z,984.2
2023-04-30T08:37:59.037Z,984.99
2023-04-30T08:43:30.970Z,984.75
2023-04-30T08:49:04.948Z,983.95
2023-04-30T08:54:33.998Z,983.68
2023-04-30T09:00:05.871Z,983.93
2023-04-30T09:05:38.086Z,983.42
2023-04-30T09:11:09.180Z,983.01
2023-04-30T09:16:47.233Z,982.59
2023-04-30T09:22:19.179Z,982.83
2023-04-30T09:27:51.069Z,983.36
2023-04-30T09:33:22.873Z,983.18
2023-04-30T09:38:54.116Z,983.16
2023-04-30T09:44:26.036Z,983.36
2023-04-30T09:49:58.536Z,983.18
2023-04-30T09:55:30.332Z,982.89
2023-04-30T10:01:01.333Z,982.63
2023-04-30T10:06:33.337Z,982.78
2023-04-30T10:12:04.579Z,982.48
2023-04-30T10:17:41.033Z,983.06
2023-04-30T10:23:12.642Z,982.69
2023-04-30T10:28:44.694Z,982.64
2023-04-30T10:34:15.866Z,982.31
2023-04-30T10:39:48.349Z,982.42
2023-04-30T10:45:19.256Z,982.57
2023-04-30T10:50:51.189Z,983.05
2023-04-30T10:56:22.798Z,982.42
2023-04-30T11:01:54.753Z,981.89
2023-04-30T11:07:26.265Z,982.13
2023-04-30T11:13:00.510Z,982.25
2023-04-30T11:18:33.888Z,982.28
2023-04-30T11:24:05.923Z,982.31
2023-04-30T11:29:37.838Z,982.28
2023-04-30T11:35:09.332Z,981.97
2023-04-30T11:40:41.674Z,982.59
2023-04-30T11:46:12.966Z,981.99
2023-04-30T11:51:44.593Z,982.24
2023-04-30T11:57:16.154Z,981.65
2023-04-30T12:02:48.972Z,981.45
2023-04-30T12:08:19.745Z,981.91
2023-04-30T12:13:51.252Z,981.37
2023-04-30T12:19:27.356Z,981.27
2023-04-30T12:24:59.403Z,981.05
2023-04-30T12:30:31.762Z,981.12
2023-04-30T12:36:02.624Z,981.04
2023-04-30T12:41:34.654Z,981.13
2023-04-30T12:47:06.417Z,981.19
2023-04-30T12:52:38.120Z,981.13
2023-04-30T12:58:09.736Z,980.84
2023-04-30T13:03:42.041Z,980.69
2023-04-30T13:09:13.263Z,980.72
2023-04-30T13:14:44.953Z,980.55
2023-04-30T13:20:21.600Z,980.34
2023-04-30T13:25:52.524Z,980.41
2023-04-30T13:31:24.598Z,980.31
2023-04-30T13:36:56.117Z,980.51
2023-04-30T13:42:27.862Z,980.57
2023-04-30T13:47:59.725Z,980.56
2023-04-30T13:53:30.968Z,980.78
2023-04-30T13:59:03.144Z,980.82
2023-04-30T14:04:34.753Z,980.46
2023-04-30T14:10:06.397Z,980.19
2023-04-30T14:15:38.074Z,979.65
2023-04-30T14:21:14.133Z,979.88
2023-04-30T14:26:45.728Z,979.77
2023-04-30T14:32:17.840Z,979.21
2023-04-30T14:37:49.488Z,979.41
2023-04-30T14:43:21.520Z,979.37
2023-04-30T14:48:52.700Z,979.47
2023-04-30T14:54:24.891Z,979.16
2023-04-30T14:59:57.263Z,979.27
2023-04-30T15:05:28.641Z,979.13
2023-04-30T15:10:59.809Z,978.77
2023-04-30T15:16:31.631Z,979.1
2023-04-30T15:22:07.599Z,978.75
2023-04-30T15:27:39.385Z,979.0
2023-04-30T15:33:11.557Z,978.83
2023-04-30T15:38:43.193Z,978.57
2023-04-30T15:44:15.183Z,978.56
2023-04-30T15:49:46.149Z,978.55
2023-04-30T15:55:18.183Z,978.38
2023-04-30T16:00:49.661Z,978.54
2023-04-30T16:06:21.404Z,978.35
2023-04-30T16:11:53.366Z,978.04
2023-04-30T16:17:25.168Z,977.79
2023-04-30T16:23:03.422Z,978.14
2023-04-30T16:28:34.830Z,977.36
2023-04-30T16:34:06.348Z,977.72
2023-04-30T16:39:38.142Z,977.44
2023-04-30T16:45:10.597Z,977.25
2023-04-30T16:50:41.996Z,976.98
2023-04-30T16:56:13.291Z,976.81
2023-04-30T17:01:45.645Z,976.92
2023-04-30T17:07:17.559Z,976.99
2023-04-30T17:12:48.415Z,976.67
2023-04-30T17:18:20.328Z,976.84
2023-04-30T17:23:56.285Z,976.64
2023-04-30T17:29:28.367Z,976.91
2023-04-30T17:35:00.018Z,976.55
2023-04-30T17:40:31.539Z,976.03
2023-04-30T17:46:03.348Z,976.25
2023-04-30T17:51:35.224Z,975.75
2023-04-30T17:57:06.848Z,975.82
2023-04-30T18:02:38.420Z,975.77
2023-04-30T18:08:10.138Z,975.51
2023-04-30T18:13:41.872Z,975.74
2023-04-30T18:19:14.186Z,975.34
2023-04-30T18:24:49.790Z,975.39
2023-04-30T18:30:22.157Z,975.06
2023-04-30T18:35:53.172Z,974.88
2023-04-30T18:41:24.742Z,974.66
2023-04-30T18:46:56.650Z,974.6
2023-04-30T18:52:28.102Z,974.43
2023-04-30T18:58:00.126Z,974.41
2023-04-30T19:03:32.409Z,974.42
2023-04-30T19:09:03.379Z,974.34
2023-04-30T19:14:35.273Z,974.31
2023-04-30T19:20:07.557Z,974.3
2023-04-30T19:25:43.188Z,974.28
2023-04-30T19:31:15.253Z,974.28
2023-04-30T19:36:46.458Z,974.24
2023-04-30T19:42:18.435Z,974.21
2023-04-30T19:47:50.360Z,974.13
2023-04-30T19:53:21.908Z,974.17
2023-04-30T19:58:53.322Z,974.04
2023-04-30T20:04:25.017Z,974.02
2023-04-30T20:09:57.961Z,973.93
2023-04-30T20:15:28.508Z,973.83
2023-04-30T20:21:00.680Z,973.79
2023-04-30T20:26:36.323Z,973.73
2023-04-30T20:32:08.273Z,973.58
2023-04-30T20:37:39.846Z,973.47
2023-04-30T20:43:11.822Z,973.3
2023-04-30T20:48:43.192Z,973.35
2023-04-30T20:54:15.279Z,973.42
2023-04-30T20:59:46.781Z,973.39
2023-04-30T21:05:18.628Z,973.42
2023-04-30T21:10:50.252Z,973.4
2023-04-30T21:16:21.977Z,973.28
2023-04-30T21:21:53.571Z,973.21
2023-04-30T21:27:29.812Z,973.13
2023-04-30T21:33:01.805Z,973.11
2023-04-30T21:38:33.238Z,972.94
2023-04-30T21:44:04.827Z,972.85
2023-04-30T21:49:36.577Z,972.79
2023-04-30T21:55:08.537Z,972.56
2023-04-30T22:00:39.884Z,972.44
2023-04-30T22:06:12.032Z,972.3
2023-04-30T22:11:43.309Z,972.45
2023-04-30T22:17:15.529Z,972.5
2023-04-30T22:22:47.743Z,972.3
2023-04-30T22:28:23.124Z,972.23
2023-04-30T22:33:54.934Z,972.51
2023-04-30T22:39:27.265Z,972.51
2023-04-30T22:44:58.156Z,972.52
2023-04-30T22:50:30.133Z,972.46
2023-04-30T22:56:02.055Z,972.4
2023-04-30T23:01:33.721Z,972.31
2023-04-30T23:07:05.047Z,972.31
2023-04-30T23:12:36.937Z,972.41
2023-04-30T23:18:09.005Z,972.45
2023-04-30T23:23:40.427Z,972.44
2023-04-30T23:29:18.622Z,972.32
2023-04-30T23:34:50.142Z,972.22
2023-04-30T23:40:21.877Z,972.07
2023-04-30T23:45:53.587Z,971.95
2023-04-30T23:51:25.162Z,971.95
2023-04-30T23:56:57.465Z,971.8
